sensor_id;sensor_type;location;lat;lon;timestamp;temperature;humidity
28069;DHT22;15382;47.578;8.086;2024-01-10T00:04:47;-3.70;99.90
28069;DHT22;15382;47.578;8.086;2024-01-10T00:14:48;-3.70;99.90
28069;DHT22;15382;47.578;8.086;2024-01-10T00:24:49;-3.70;99.90
28069;DHT22;15382;47.578;8.086;2024-01-10T00:34:50;-3.80;99.90
28069;DHT22;15382;47.578;8.086;2024-01-10T00:44:51;-3.80;99.90
28069;DHT22;15382;47.578;8.086;2024-01-10T00:54:51;-3.70;99.90
28069;DHT22;15382;47.578;8.086;2024-01-10T01:04:52;-3.70;99.90
28069;DHT22;15382;47.578;8.086;2024-01-10T01:14:53;-3.70;99.90
28069;DHT22;15382;47.578;8.086;2024-01-10T01:24:53;-3.80;99.90
28069;DHT22;15382;47.578;8.086;2024-01-10T01:34:54;-3.80;99.90
28069;DHT22;15382;47.578;8.086;2024-01-10T01:44:55;-3.90;99.90
28069;DHT22;15382;47.578;8.086;2024-01-10T01:54:55;-4.00;99.90
28069;DHT22;15382;47.578;8.086;2024-01-10T02:04:56;-4.20;99.90
28069;DHT22;15382;47.578;8.086;2024-01-10T02:14:57;-4.30;99.90
28069;DHT22;15382;47.578;8.086;2024-01-10T02:24:57;-4.30;99.90
28069;DHT22;15382;47.578;8.086;2024-01-10T02:34:58;-4.40;99.90
28069;DHT22;15382;47.578;8.086;2024-01-10T02:44:59;-4.40;99.90
28069;DHT22;15382;47.578;8.086;2024-01-10T02:54:59;-4.50;99.90
28069;DHT22;15382;47.578;8.086;2024-01-10T03:05:00;-4.30;99.90
28069;DHT22;15382;47.578;8.086;2024-01-10T03:15:01;-4.20;99.90
28069;DHT22;15382;47.578;8.086;2024-01-10T03:25:01;-4.10;99.90
28069;DHT22;15382;47.578;8.086;2024-01-10T03:35:02;-4.00;99.90
28069;DHT22;15382;47.578;8.086;2024-01-10T03:45:03;-4.00;99.90
28069;DHT22;15382;47.578;8.086;2024-01-10T03:55:04;-3.90;99.90
28069;DHT22;15382;47.578;8.086;2024-01-10T04:05:06;-3.90;99.90
28069;DHT22;15382;47.578;8.086;2024-01-10T04:15:07;-3.90;99.90
28069;DHT22;15382;47.578;8.086;2024-01-10T04:25:08;-3.80;99.90
28069;DHT22;15382;47.578;8.086;2024-01-10T04:35:08;-4.00;99.90
28069;DHT22;15382;47.578;8.086;2024-01-10T04:45:09;-4.10;99.90
28069;DHT22;15382;47.578;8.086;2024-01-10T04:55:10;-4.30;99.90
28069;DHT22;15382;47.578;8.086;2024-01-10T05:05:11;-4.40;99.90
28069;DHT22;15382;47.578;8.086;2024-01-10T05:15:12;-4.50;99.90
28069;DHT22;15382;47.578;8.086;2024-01-10T05:25:12;-4.50;99.90
28069;DHT22;15382;47.578;8.086;2024-01-10T05:35:13;-4.60;99.90
28069;DHT22;15382;47.578;8.086;2024-01-10T05:45:13;-4.40;99.90
28069;DHT22;15382;47.578;8.086;2024-01-10T05:55:14;-4.20;99.90
28069;DHT22;15382;47.578;8.086;2024-01-10T06:05:15;-4.00;99.90
28069;DHT22;15382;47.578;8.086;2024-01-10T06:15:15;-3.80;99.90
28069;DHT22;15382;47.578;8.086;2024-01-10T06:25:16;-3.70;99.90
28069;DHT22;15382;47.578;8.086;2024-01-10T06:35:17;-3.60;99.90
28069;DHT22;15382;47.578;8.086;2024-01-10T06:45:17;-3.60;99.90
28069;DHT22;15382;47.578;8.086;2024-01-10T06:55:19;-3.60;99.90
28069;DHT22;15382;47.578;8.086;2024-01-10T07:05:19;-3.60;99.90
28069;DHT22;15382;47.578;8.086;2024-01-10T07:15:20;-3.50;99.90
28069;DHT22;15382;47.578;8.086;2024-01-10T07:25:21;-3.30;99.90
28069;DHT22;15382;47.578;8.086;2024-01-10T07:35:25;-3.30;99.90
28069;DHT22;15382;47.578;8.086;2024-01-10T07:45:27;-3.30;99.90
28069;DHT22;15382;47.578;8.086;2024-01-10T07:55:27;-3.20;99.90
28069;DHT22;15382;47.578;8.086;2024-01-10T08:05:31;-3.10;99.90
28069;DHT22;15382;47.578;8.086;2024-01-10T08:15:32;-3.00;99.90
28069;DHT22;15382;47.578;8.086;2024-01-10T08:25:34;-2.90;99.90
28069;DHT22;15382;47.578;8.086;2024-01-10T08:35:35;-2.60;99.90
28069;DHT22;15382;47.578;8.086;2024-01-10T08:45:36;-2.30;99.90
28069;DHT22;15382;47.578;8.086;2024-01-10T08:55:36;-2.20;99.90
28069;DHT22;15382;47.578;8.086;2024-01-10T09:05:40;-1.90;99.90
28069;DHT22;15382;47.578;8.086;2024-01-10T09:15:41;-1.70;99.90
28069;DHT22;15382;47.578;8.086;2024-01-10T09:25:41;-1.60;99.90
28069;DHT22;15382;47.578;8.086;2024-01-10T09:35:42;-1.40;99.90
28069;DHT22;15382;47.578;8.086;2024-01-10T09:45:43;-0.90;99.90
28069;DHT22;15382;47.578;8.086;2024-01-10T09:55:47;-0.50;99.90
28069;DHT22;15382;47.578;8.086;2024-01-10T10:05:48;-0.50;99.90
28069;DHT22;15382;47.578;8.086;2024-01-10T10:15:56;-0.10;99.90
28069;DHT22;15382;47.578;8.086;2024-01-10T10:26:02;0.40;99.90
28069;DHT22;15382;47.578;8.086;2024-01-10T10:36:10;-0.20;99.90
28069;DHT22;15382;47.578;8.086;2024-01-10T10:46:11;-0.10;99.90
28069;DHT22;15382;47.578;8.086;2024-01-10T10:56:15;-0.30;99.90
28069;DHT22;15382;47.578;8.086;2024-01-10T11:06:15;0.00;99.90
28069;DHT22;15382;47.578;8.086;2024-01-10T11:26:27;-0.10;99.90
28069;DHT22;15382;47.578;8.086;2024-01-10T11:36:28;-0.10;99.90
28069;DHT22;15382;47.578;8.086;2024-01-10T11:46:29;0.10;99.90
28069;DHT22;15382;47.578;8.086;2024-01-10T11:56:40;0.40;99.90
28069;DHT22;15382;47.578;8.086;2024-01-10T12:06:42;0.30;99.90
28069;DHT22;15382;47.578;8.086;2024-01-10T12:16:42;0.00;99.90
28069;DHT22;15382;47.578;8.086;2024-01-10T12:26:44;0.30;99.90
28069;DHT22;15382;47.578;8.086;2024-01-10T12:36:45;0.30;99.90
28069;DHT22;15382;47.578;8.086;2024-01-10T12:46:51;0.30;99.90
28069;DHT22;15382;47.578;8.086;2024-01-10T12:56:54;0.10;99.90
28069;DHT22;15382;47.578;8.086;2024-01-10T13:06:57;0.20;99.90
28069;DHT22;15382;47.578;8.086;2024-01-10T13:16:58;0.20;99.90
28069;DHT22;15382;47.578;8.086;2024-01-10T13:26:59;0.10;99.90
28069;DHT22;15382;47.578;8.086;2024-01-10T13:36:59;0.10;99.90
28069;DHT22;15382;47.578;8.086;2024-01-10T13:47:00;0.20;99.90
28069;DHT22;15382;47.578;8.086;2024-01-10T13:57:02;0.10;99.90
28069;DHT22;15382;47.578;8.086;2024-01-10T14:07:03;-0.10;99.90
28069;DHT22;15382;47.578;8.086;2024-01-10T14:17:05;-0.20;99.90
28069;DHT22;15382;47.578;8.086;2024-01-10T14:27:05;-0.20;99.90
28069;DHT22;15382;47.578;8.086;2024-01-10T14:37:07;0.00;99.90
28069;DHT22;15382;47.578;8.086;2024-01-10T14:47:07;0.00;99.90
28069;DHT22;15382;47.578;8.086;2024-01-10T14:57:08;-0.30;99.90
28069;DHT22;15382;47.578;8.086;2024-01-10T15:07:09;-0.30;99.90
28069;DHT22;15382;47.578;8.086;2024-01-10T15:17:10;-0.40;99.90
28069;DHT22;15382;47.578;8.086;2024-01-10T15:27:11;-0.40;99.90
28069;DHT22;15382;47.578;8.086;2024-01-10T15:37:12;-0.50;99.90
28069;DHT22;15382;47.578;8.086;2024-01-10T15:47:13;-0.50;99.90
28069;DHT22;15382;47.578;8.086;2024-01-10T15:57:13;-0.60;99.90
28069;DHT22;15382;47.578;8.086;2024-01-10T16:07:14;-0.60;99.90
28069;DHT22;15382;47.578;8.086;2024-01-10T16:17:14;-0.60;99.90
28069;DHT22;15382;47.578;8.086;2024-01-10T16:27:15;-0.70;99.90
28069;DHT22;15382;47.578;8.086;2024-01-10T16:37:16;-0.70;99.90
28069;DHT22;15382;47.578;8.086;2024-01-10T16:47:16;-0.70;99.90
28069;DHT22;15382;47.578;8.086;2024-01-10T16:57:17;-0.60;99.90
28069;DHT22;15382;47.578;8.086;2024-01-10T17:07:18;-0.60;99.90
28069;DHT22;15382;47.578;8.086;2024-01-10T17:17:18;-0.60;99.90
28069;DHT22;15382;47.578;8.086;2024-01-10T17:27:19;-0.70;99.90
28069;DHT22;15382;47.578;8.086;2024-01-10T17:37:20;-0.70;99.90
28069;DHT22;15382;47.578;8.086;2024-01-10T17:47:21;-0.70;99.90
28069;DHT22;15382;47.578;8.086;2024-01-10T17:57:23;-0.70;99.90
28069;DHT22;15382;47.578;8.086;2024-01-10T18:07:27;-0.80;99.90
28069;DHT22;15382;47.578;8.086;2024-01-10T18:17:27;-0.80;99.90
28069;DHT22;15382;47.578;8.086;2024-01-10T18:27:28;-0.70;99.90
28069;DHT22;15382;47.578;8.086;2024-01-10T18:37:28;-0.80;99.90
28069;DHT22;15382;47.578;8.086;2024-01-10T18:47:29;-0.70;99.90
28069;DHT22;15382;47.578;8.086;2024-01-10T18:57:30;-0.60;99.90
28069;DHT22;15382;47.578;8.086;2024-01-10T19:07:30;-0.70;99.90
28069;DHT22;15382;47.578;8.086;2024-01-10T19:17:31;-0.60;99.90
28069;DHT22;15382;47.578;8.086;2024-01-10T19:27:32;-0.70;99.90
28069;DHT22;15382;47.578;8.086;2024-01-10T19:37:32;-0.70;99.90
28069;DHT22;15382;47.578;8.086;2024-01-10T19:47:33;-0.70;99.90
28069;DHT22;15382;47.578;8.086;2024-01-10T19:57:34;-0.70;99.90
28069;DHT22;15382;47.578;8.086;2024-01-10T20:07:35;-0.70;99.90
28069;DHT22;15382;47.578;8.086;2024-01-10T20:17:36;-0.60;99.90
28069;DHT22;15382;47.578;8.086;2024-01-10T20:27:37;-0.60;99.90
28069;DHT22;15382;47.578;8.086;2024-01-10T20:37:37;-0.60;99.90
28069;DHT22;15382;47.578;8.086;2024-01-10T20:47:38;-0.60;99.90
28069;DHT22;15382;47.578;8.086;2024-01-10T20:57:43;-0.60;99.90
28069;DHT22;15382;47.578;8.086;2024-01-10T21:07:44;-0.60;99.90
28069;DHT22;15382;47.578;8.086;2024-01-10T21:17:44;-0.60;99.90
28069;DHT22;15382;47.578;8.086;2024-01-10T21:27:46;-0.60;99.90
28069;DHT22;15382;47.578;8.086;2024-01-10T21:37:46;-0.60;99.90
28069;DHT22;15382;47.578;8.086;2024-01-10T21:47:47;-0.60;99.90
28069;DHT22;15382;47.578;8.086;2024-01-10T21:57:48;-0.60;99.90
28069;DHT22;15382;47.578;8.086;2024-01-10T22:07:49;-0.60;99.90
28069;DHT22;15382;47.578;8.086;2024-01-10T22:17:49;-0.70;99.90
28069;DHT22;15382;47.578;8.086;2024-01-10T22:27:50;-0.70;99.90
28069;DHT22;15382;47.578;8.086;2024-01-10T22:37:51;-0.70;99.90
28069;DHT22;15382;47.578;8.086;2024-01-10T22:47:55;-0.70;99.90
28069;DHT22;15382;47.578;8.086;2024-01-10T22:57:55;-0.70;99.90
28069;DHT22;15382;47.578;8.086;2024-01-10T23:07:57;-0.70;99.90
28069;DHT22;15382;47.578;8.086;2024-01-10T23:17:58;-0.70;99.90
28069;DHT22;15382;47.578;8.086;2024-01-10T23:27:59;-0.80;99.90
28069;DHT22;15382;47.578;8.086;2024-01-10T23:38:01;-0.70;99.90
28069;DHT22;15382;47.578;8.086;2024-01-10T23:48:02;-0.70;99.90
28069;DHT22;15382;47.578;8.086;2024-01-10T23:58:03;-0.70;99.90
